Time;durP1;ratioP1;P1;durP2;ratioP2;P2;SDS_P1;SDS_P2;PMS_P1;PMS_P2;Temp;Humidity;BMP_temperature;BMP_pressure;BME280_temperature;BME280_humidity;BME280_pressure;Samples;Min_cycle;Max_cycle;Signal;HPM_P1;HPM_P2
2022/06/23 00:01:57;;;;;;;4.80;3.13;;;10.90;99.90;;;;;;4423840;28;656510;-68
2022/06/23 00:04:46;;;;;;;4.67;3.80;;;10.80;99.90;;;;;;4395399;28;655683;-69
2022/06/23 00:07:35;;;;;;;7.23;3.80;;;10.80;99.90;;;;;;4396900;28;656553;-69
2022/06/23 00:10:24;;;;;;;9.17;3.63;;;10.80;99.90;;;;;;4394020;28;656523;-69
2022/06/23 00:13:13;;;;;;;7.70;3.90;;;10.80;99.90;;;;;;4402644;28;655821;-69
2022/06/23 00:16:00;;;;;;;7.87;3.77;;;10.70;99.90;;;;;;4399486;28;655837;-69
2022/06/23 00:18:49;;;;;;;5.27;3.73;;;10.70;99.90;;;;;;4421164;28;656343;-69
2022/06/23 00:21:36;;;;;;;6.73;3.40;;;10.70;99.90;;;;;;4393041;28;655954;-69
2022/06/23 00:24:25;;;;;;;5.60;3.30;;;10.70;99.90;;;;;;4418536;28;655931;-69
2022/06/23 00:27:13;;;;;;;8.80;3.57;;;10.80;99.90;;;;;;4395193;28;656156;-69
2022/06/23 00:30:06;;;;;;;7.57;3.70;;;10.80;99.90;;;;;;4398656;28;656511;-69
2022/06/23 00:32:53;;;;;;;8.55;3.92;;;10.70;99.90;;;;;;4389826;28;656816;-69
2022/06/23 00:35:42;;;;;;;8.27;3.83;;;10.70;99.90;;;;;;4400344;28;656195;-70
2022/06/23 00:38:30;;;;;;;10.47;4.67;;;10.70;99.90;;;;;;4412743;28;655864;-68
2022/06/23 00:41:19;;;;;;;7.97;4.30;;;10.70;99.90;;;;;;4385187;28;657174;-69
2022/06/23 00:44:07;;;;;;;8.57;3.87;;;10.70;99.90;;;;;;4393507;28;655284;-69
2022/06/23 00:46:55;;;;;;;9.50;4.40;;;10.70;99.90;;;;;;4413684;28;655748;-69
2022/06/23 00:49:46;;;;;;;11.47;5.07;;;10.70;99.90;;;;;;4391564;28;656259;-69
2022/06/23 00:52:36;;;;;;;13.57;4.43;;;10.80;99.90;;;;;;4385392;28;657088;-69
2022/06/23 00:55:29;;;;;;;8.20;4.13;;;10.70;99.90;;;;;;4386259;28;657451;-70
2022/06/23 00:58:22;;;;;;;6.17;3.60;;;10.70;99.90;;;;;;4389640;28;654951;-69
2022/06/23 01:01:14;;;;;;;5.43;3.70;;;10.70;99.90;;;;;;4392299;28;656201;-69
2022/06/23 01:04:02;;;;;;;5.23;3.40;;;10.70;99.90;;;;;;4391642;28;655921;-70
2022/06/23 01:06:51;;;;;;;5.67;3.70;;;10.70;99.90;;;;;;4409118;28;656801;-69
2022/06/23 01:09:41;;;;;;;5.17;3.50;;;10.70;99.90;;;;;;4387416;28;656082;-69
2022/06/23 01:12:31;;;;;;;7.23;3.80;;;10.70;99.90;;;;;;4390271;28;655894;-69
2022/06/23 01:15:21;;;;;;;7.27;3.70;;;10.60;99.90;;;;;;4387178;28;656121;-69
2022/06/23 01:18:13;;;;;;;6.10;3.67;;;10.70;99.90;;;;;;4391175;28;655696;-69
2022/06/23 01:21:02;;;;;;;5.80;4.03;;;10.70;99.90;;;;;;4375236;28;655640;-69
2022/06/23 01:23:55;;;;;;;8.10;3.63;;;10.70;99.90;;;;;;4407524;28;655677;-69
2022/06/23 01:26:51;;;;;;;5.30;3.73;;;10.80;99.90;;;;;;4384150;28;656777;-69
2022/06/23 01:29:40;;;;;;;3.87;3.43;;;10.80;99.90;;;;;;4389110;28;655284;-69
2022/06/23 01:32:29;;;;;;;7.20;3.43;;;10.70;99.90;;;;;;4390428;28;656034;-69
2022/06/23 01:35:19;;;;;;;9.67;3.70;;;10.70;99.90;;;;;;4389220;28;655985;-69
2022/06/23 01:38:11;;;;;;;7.20;3.73;;;10.60;99.90;;;;;;4391051;28;655616;-69
2022/06/23 01:41:00;;;;;;;7.20;3.40;;;10.60;99.90;;;;;;4387353;28;655830;-70
2022/06/23 01:43:49;;;;;;;12.70;3.77;;;10.60;99.90;;;;;;4391057;28;655602;-70
2022/06/23 01:46:39;;;;;;;5.23;3.37;;;10.60;99.90;;;;;;4390755;28;656845;-70
2022/06/23 01:49:27;;;;;;;4.50;3.00;;;10.50;99.90;;;;;;4391989;28;655702;-70
2022/06/23 01:52:18;;;;;;;7.03;3.40;;;10.50;99.90;;;;;;4405917;28;655607;-69
2022/06/23 01:55:14;;;;;;;8.40;3.40;;;10.50;99.90;;;;;;4402850;28;656283;-70
2022/06/23 01:58:02;;;;;;;10.87;3.63;;;10.50;93.50;;;;;;4390822;28;655697;-70
2022/06/23 02:00:50;;;;;;;6.53;3.50;;;10.50;99.90;;;;;;4404141;28;656939;-69
2022/06/23 02:03:40;;;;;;;6.55;3.42;;;10.50;77.30;;;;;;4411917;28;655490;-69
2022/06/23 02:06:29;;;;;;;8.23;3.70;;;10.50;55.40;;;;;;4387410;28;656282;-69
2022/06/23 02:09:19;;;;;;;4.20;3.07;;;10.40;36.40;;;;;;4391928;28;656443;-69
2022/06/23 02:12:14;;;;;;;8.23;3.60;;;10.40;36.20;;;;;;4387359;28;655926;-69
2022/06/23 02:15:06;;;;;;;9.07;3.60;;;10.40;42.40;;;;;;4365136;28;656381;-70
2022/06/23 02:17:55;;;;;;;6.73;3.70;;;10.30;66.00;;;;;;4385027;28;655680;-70
2022/06/23 02:20:47;;;;;;;7.27;3.30;;;10.30;99.90;;;;;;4383699;28;655868;-70
2022/06/23 02:23:38;;;;;;;8.83;3.40;;;10.30;99.90;;;;;;4385711;28;655623;-69
2022/06/23 02:26:27;;;;;;;5.87;3.17;;;10.30;99.90;;;;;;4369497;28;655969;-70
2022/06/23 02:29:16;;;;;;;9.80;3.57;;;10.30;99.90;;;;;;4406887;28;655552;-69
2022/06/23 02:32:05;;;;;;;5.40;3.30;;;10.30;99.90;;;;;;4387761;28;657532;-68
2022/06/23 02:34:54;;;;;;;5.17;3.30;;;10.30;99.90;;;;;;4392344;28;656415;-69
2022/06/23 02:38:02;;;;;;;7.83;3.20;;;10.20;99.90;;;;;;4394944;28;656160;-70
2022/06/23 02:40:49;;;;;;;9.93;3.37;;;10.20;99.90;;;;;;4404505;28;655285;-69
2022/06/23 02:43:39;;;;;;;10.07;3.60;;;10.10;99.90;;;;;;4400946;28;655312;-69
2022/06/23 02:46:40;;;;;;;6.47;3.60;;;10.20;99.90;;;;;;4396481;28;656625;-70
2022/06/23 02:49:58;;;;;;;6.23;3.60;;;10.20;99.90;;;;;;4371362;28;655559;-69
2022/06/23 02:53:16;;;;;;;13.37;3.87;;;10.10;99.90;;;;;;4366340;28;655982;-70
2022/06/23 02:56:22;;;;;;;5.93;3.90;;;10.10;99.90;;;;;;4391227;28;656947;-69
2022/06/23 02:59:11;;;;;;;10.43;3.70;;;10.10;99.90;;;;;;4398711;28;655585;-70
2022/06/23 03:02:00;;;;;;;8.90;3.70;;;10.10;99.90;;;;;;4398276;28;656942;-70
2022/06/23 03:04:48;;;;;;;9.60;3.67;;;10.10;99.90;;;;;;4397650;28;655990;-70
2022/06/23 03:07:38;;;;;;;6.10;3.80;;;10.10;99.90;;;;;;4397020;28;656401;-70
2022/06/23 03:10:28;;;;;;;5.83;4.10;;;10.10;99.90;;;;;;4409129;28;655721;-70
2022/06/23 03:13:17;;;;;;;15.33;4.27;;;10.10;99.90;;;;;;4401391;28;657276;-70
2022/06/23 03:16:10;;;;;;;7.70;3.97;;;10.10;99.90;;;;;;4413016;28;656469;-70
2022/06/23 03:19:00;;;;;;;6.90;3.67;;;10.20;99.90;;;;;;4401352;28;656016;-70
2022/06/23 03:21:48;;;;;;;5.57;3.63;;;10.20;99.90;;;;;;4394184;28;656441;-69
2022/06/23 03:24:36;;;;;;;5.53;3.77;;;10.20;99.90;;;;;;4397344;28;655455;-70
2022/06/23 03:27:28;;;;;;;9.90;3.85;;;10.20;99.90;;;;;;4421741;28;656060;-69
2022/06/23 03:30:18;;;;;;;7.53;3.57;;;10.30;99.90;;;;;;4369249;28;655459;-70
2022/06/23 03:33:11;;;;;;;5.70;3.40;;;10.30;99.90;;;;;;4398931;28;656082;-70
2022/06/23 03:36:00;;;;;;;4.70;3.30;;;10.40;99.90;;;;;;4387742;28;655875;-70
2022/06/23 03:41:59;;;;;;;3.97;3.00;;;10.60;99.90;;;;;;4390881;28;655602;-70
2022/06/23 03:44:53;;;;;;;8.97;3.30;;;10.70;99.90;;;;;;4390890;28;655920;-70
2022/06/23 03:47:44;;;;;;;7.83;3.13;;;10.80;99.90;;;;;;4390374;28;656360;-70
2022/06/23 03:50:34;;;;;;;6.40;3.20;;;10.90;99.90;;;;;;4392181;28;655835;-70
2022/06/23 03:53:24;;;;;;;6.73;3.43;;;11.00;12.40;;;;;;4394608;28;655620;-70
2022/06/23 03:56:15;;;;;;;5.03;3.13;;;11.20;12.80;;;;;;4390874;28;655421;-70
2022/06/23 03:59:04;;;;;;;7.67;3.17;;;11.30;1.00;;;;;;4388007;28;657537;-70
2022/06/23 04:01:53;;;;;;;7.80;3.57;;;11.30;1.00;;;;;;4394180;28;654331;-70
2022/06/23 04:04:45;;;;;;;4.83;3.13;;;11.40;1.00;;;;;;4393636;28;654988;-70
2022/06/23 04:07:38;;;;;;;13.23;4.70;;;11.60;1.00;;;;;;4389147;28;655497;-70
2022/06/23 04:10:30;;;;;;;7.80;4.00;;;11.70;24.70;;;;;;4361948;28;655752;-69
2022/06/23 04:13:20;;;;;;;6.53;3.50;;;11.90;99.90;;;;;;4393987;28;656322;-70
2022/06/23 04:16:10;;;;;;;10.63;4.27;;;11.90;98.70;;;;;;4393369;28;655655;-70
2022/06/23 04:18:59;;;;;;;7.97;4.03;;;12.00;1.00;;;;;;4391420;28;657336;-70
2022/06/23 04:21:47;;;;;;;11.07;3.97;;;12.20;99.90;;;;;;4394122;28;654629;-71
2022/06/23 04:24:35;;;;;;;9.30;3.83;;;12.40;35.10;;;;;;4412799;28;656474;-70
2022/06/23 04:27:24;;;;;;;9.17;3.10;;;12.60;1.00;;;;;;4386640;28;656493;-69
2022/06/23 04:30:18;;;;;;;6.43;3.13;;;12.80;99.90;;;;;;4392177;28;654324;-69
2022/06/23 04:33:06;;;;;;;8.00;3.00;;;13.00;99.90;;;;;;4366864;28;655602;-70
2022/06/23 04:35:56;;;;;;;5.87;2.80;;;13.30;99.90;;;;;;4414324;28;655581;-69
2022/06/23 04:38:44;;;;;;;7.33;2.80;;;13.50;99.90;;;;;;4397567;28;656380;-70
2022/06/23 04:41:34;;;;;;;7.33;2.30;;;13.70;99.90;;;;;;4392866;28;655592;-70
2022/06/23 04:44:23;;;;;;;5.53;2.27;;;13.90;99.90;;;;;;4387274;28;656022;-70
2022/06/23 04:47:13;;;;;;;3.13;2.10;;;14.10;1.00;;;;;;4398199;28;656052;-70
2022/06/23 04:50:03;;;;;;;4.43;2.07;;;14.40;99.90;;;;;;4398467;28;654275;-70
2022/06/23 04:52:53;;;;;;;5.27;2.10;;;14.60;1.00;;;;;;4399011;28;655693;-70
2022/06/23 04:55:40;;;;;;;5.83;2.00;;;14.80;1.00;;;;;;4398320;28;654226;-70
2022/06/23 04:58:27;;;;;;;2.13;1.73;;;15.00;99.90;;;;;;4417040;28;655542;-70
2022/06/23 05:01:16;;;;;;;5.10;2.17;;;15.10;99.90;;;;;;4415638;28;655592;-70
2022/06/23 05:04:04;;;;;;;3.10;2.23;;;15.20;99.90;;;;;;4394840;28;656091;-69
2022/06/23 05:06:52;;;;;;;3.33;1.77;;;15.40;99.90;;;;;;4396220;28;655187;-69
2022/06/23 05:09:41;;;;;;;3.77;2.33;;;15.60;99.90;;;;;;4409721;28;655931;-69
2022/06/23 05:12:29;;;;;;;5.20;2.03;;;15.70;99.90;;;;;;4392164;28;656577;-69
2022/06/23 05:15:17;;;;;;;4.93;2.00;;;16.00;99.90;;;;;;4391068;28;656244;-70
2022/06/23 05:18:09;;;;;;;5.57;2.07;;;16.00;99.90;;;;;;4417566;28;655471;-70
2022/06/23 05:20:57;;;;;;;2.37;1.43;;;16.20;99.90;;;;;;4397821;28;655733;-71
2022/06/23 05:23:46;;;;;;;3.37;1.60;;;16.40;99.90;;;;;;4414701;28;655933;-69
2022/06/23 05:26:41;;;;;;;5.87;2.03;;;16.50;99.90;;;;;;4391276;28;655767;-69
2022/06/23 05:29:32;;;;;;;4.27;1.50;;;16.70;99.90;;;;;;4388283;28;655641;-69
2022/06/23 05:32:22;;;;;;;3.00;1.70;;;16.90;99.90;;;;;;4410686;28;655671;-70
2022/06/23 05:35:16;;;;;;;2.97;1.80;;;17.00;99.90;;;;;;4408062;28;655733;-69
2022/06/23 05:38:04;;;;;;;3.60;1.90;;;17.30;99.90;;;;;;4385439;28;655910;-69
2022/06/23 05:41:02;;;;;;;2.90;1.70;;;17.40;99.90;;;;;;4411627;28;655850;-64
2022/06/23 05:43:50;;;;;;;3.77;1.60;;;17.70;99.90;;;;;;4409760;28;656069;-65
2022/06/23 05:46:40;;;;;;;4.40;1.77;;;17.70;99.90;;;;;;4382646;28;656455;-65
2022/06/23 05:49:31;;;;;;;2.27;1.47;;;17.90;99.90;;;;;;4382960;28;655370;-64
2022/06/23 05:52:21;;;;;;;3.27;1.73;;;18.10;99.90;;;;;;4390632;28;655380;-64
2022/06/23 05:55:13;;;;;;;3.37;1.60;;;18.30;99.90;;;;;;4388200;28;656356;-64
2022/06/23 05:58:04;;;;;;;3.40;1.43;;;18.50;99.90;;;;;;4381362;28;655876;-65
2022/06/23 06:00:55;;;;;;;2.57;1.63;;;18.60;99.90;;;;;;4388009;28;655333;-65
2022/06/23 06:03:43;;;;;;;2.53;1.27;;;18.70;99.90;;;;;;4390274;28;656566;-65
2022/06/23 06:06:31;;;;;;;1.83;1.30;;;18.60;99.90;;;;;;4387372;28;655530;-65
2022/06/23 06:09:38;;;;;;;7.93;1.33;;;18.80;99.90;;;;;;4420368;28;658691;-65
2022/06/23 06:12:26;;;;;;;2.53;1.17;;;18.90;91.20;;;;;;4373940;28;655747;-65
2022/06/23 06:15:17;;;;;;;2.60;1.37;;;19.10;83.40;;;;;;4416517;28;655485;-65
2022/06/23 06:18:08;;;;;;;2.65;1.30;;;19.20;99.90;;;;;;4398904;28;655385;-65
2022/06/23 06:20:57;;;;;;;6.57;1.40;;;19.20;77.50;;;;;;4376545;28;655299;-65
2022/06/23 06:23:46;;;;;;;3.30;1.40;;;19.40;70.80;;;;;;4410676;28;655102;-65
2022/06/23 06:26:36;;;;;;;3.37;1.30;;;19.40;73.00;;;;;;4386848;28;656476;-65
2022/06/23 06:29:26;;;;;;;2.50;1.33;;;19.50;71.20;;;;;;4389375;28;656500;-65
2022/06/23 06:32:22;;;;;;;4.63;1.50;;;19.70;76.90;;;;;;4388034;28;657209;-65
2022/06/23 06:35:16;;;;;;;3.17;1.40;;;19.80;88.10;;;;;;4388889;28;655372;-65
2022/06/23 06:38:05;;;;;;;3.23;1.40;;;19.90;88.40;;;;;;4388416;28;655817;-65
2022/06/23 06:40:54;;;;;;;3.30;1.30;;;20.10;94.60;;;;;;4392497;28;657432;-65
2022/06/23 06:43:41;;;;;;;3.63;1.77;;;20.00;86.90;;;;;;4396922;28;655790;-65
2022/06/23 06:46:28;;;;;;;4.77;1.47;;;20.10;80.20;;;;;;4412291;28;656648;-65
2022/06/23 06:49:17;;;;;;;5.13;2.40;;;20.00;71.80;;;;;;4394485;28;655402;-65
2022/06/23 06:52:06;;;;;;;6.73;1.73;;;20.30;91.70;;;;;;4405307;28;655724;-66
2022/06/23 06:54:56;;;;;;;3.40;1.60;;;20.40;86.70;;;;;;4389268;28;655980;-65
2022/06/23 06:57:44;;;;;;;2.53;1.40;;;20.50;82.20;;;;;;4388940;28;655622;-66
2022/06/23 07:00:34;;;;;;;5.83;1.70;;;20.70;84.30;;;;;;4400331;28;656051;-65
2022/06/23 07:03:22;;;;;;;2.87;1.40;;;20.70;71.70;;;;;;4397716;28;655354;-65
2022/06/23 07:06:13;;;;;;;2.23;1.80;;;20.70;95.00;;;;;;4408822;28;655483;-65
2022/06/23 07:09:07;;;;;;;7.83;1.83;;;20.30;81.50;;;;;;4391986;28;655408;-65
2022/06/23 07:11:54;;;;;;;5.87;1.60;;;20.00;83.10;;;;;;4390791;28;656813;-65
2022/06/23 07:14:44;;;;;;;3.43;1.67;;;19.70;73.40;;;;;;4380580;28;657024;-65
2022/06/23 07:17:34;;;;;;;9.40;2.10;;;20.00;89.50;;;;;;4394653;28;656835;-65
2022/06/23 07:20:23;;;;;;;8.33;1.93;;;20.80;93.00;;;;;;4393519;28;655941;-65
2022/06/23 07:23:14;;;;;;;5.15;1.73;;;21.10;72.80;;;;;;4393614;28;656189;-65
2022/06/23 07:26:20;;;;;;;2.10;1.50;;;21.10;76.50;;;;;;4390415;28;655568;-65
2022/06/23 07:29:13;;;;;;;3.40;1.60;;;20.90;70.80;;;;;;4395211;28;655673;-65
2022/06/23 07:32:06;;;;;;;5.17;1.47;;;20.80;70.40;;;;;;4377245;28;655666;-65
2022/06/23 07:34:55;;;;;;;3.20;1.40;;;20.60;76.40;;;;;;4393457;28;656218;-65
2022/06/23 07:37:43;;;;;;;3.67;1.53;;;20.60;82.90;;;;;;4396583;28;656213;-65
2022/06/23 07:40:33;;;;;;;3.87;1.73;;;20.50;91.60;;;;;;4393667;28;655654;-65
2022/06/23 07:43:24;;;;;;;4.87;1.47;;;20.40;87.70;;;;;;4400711;28;655279;-65
2022/06/23 07:46:12;;;;;;;3.80;1.70;;;20.70;65.10;;;;;;4402467;28;655319;-65
2022/06/23 07:48:59;;;;;;;4.63;1.70;;;21.40;72.90;;;;;;4420698;28;655459;-65
2022/06/23 07:51:46;;;;;;;7.80;1.60;;;21.00;72.30;;;;;;4403767;28;656009;-65
2022/06/23 07:54:34;;;;;;;4.23;1.70;;;20.80;76.20;;;;;;4422120;28;655577;-65
2022/06/23 07:57:21;;;;;;;6.40;2.00;;;20.70;81.70;;;;;;4395801;28;655733;-65
2022/06/23 08:00:10;;;;;;;4.80;1.87;;;20.50;87.90;;;;;;4421654;28;656022;-65
2022/06/23 08:03:00;;;;;;;5.83;1.90;;;21.00;84.00;;;;;;4395916;28;656704;-65
2022/06/23 08:05:50;;;;;;;4.07;1.70;;;22.10;90.90;;;;;;4396983;28;656655;-65
2022/06/23 08:08:38;;;;;;;4.17;1.70;;;22.70;59.00;;;;;;4404040;28;656408;-65
2022/06/23 08:14:36;;;;;;;3.60;1.80;;;22.10;57.50;;;;;;4352646;28;655363;-65
2022/06/23 08:17:24;;;;;;;6.73;1.70;;;22.00;61.50;;;;;;4415776;28;656194;-65
2022/06/23 08:20:11;;;;;;;2.60;1.70;;;22.20;60.10;;;;;;4401637;28;655872;-65
2022/06/23 08:22:58;;;;;;;5.27;1.80;;;21.70;62.20;;;;;;4420590;28;655923;-65
2022/06/23 08:25:46;;;;;;;3.13;1.80;;;21.30;77.90;;;;;;4393520;28;655769;-65
2022/06/23 08:28:33;;;;;;;3.70;1.90;;;21.80;78.50;;;;;;4417693;28;656712;-65
2022/06/23 08:31:20;;;;;;;3.10;1.70;;;22.80;66.10;;;;;;4405313;28;655381;-66
2022/06/23 08:34:09;;;;;;;4.87;1.97;;;23.60;59.20;;;;;;4418288;28;657058;-65
2022/06/23 08:36:58;;;;;;;2.80;1.57;;;23.60;59.20;;;;;;4376245;28;655376;-65
2022/06/23 08:39:49;;;;;;;4.80;1.70;;;23.40;55.00;;;;;;4373815;28;655375;-66
2022/06/23 08:42:41;;;;;;;2.57;1.60;;;22.40;54.70;;;;;;4370385;28;655326;-65
2022/06/23 08:45:33;;;;;;;4.67;1.77;;;22.30;60.00;;;;;;4367560;28;657180;-65
2022/06/23 08:48:26;;;;;;;5.77;1.60;;;22.20;57.30;;;;;;4376491;28;655675;-66
2022/06/23 08:51:20;;;;;;;3.93;1.60;;;22.20;66.60;;;;;;4367193;28;655659;-66
2022/06/23 08:54:11;;;;;;;2.50;1.57;;;22.00;64.90;;;;;;4384691;28;656243;-65
2022/06/23 08:57:03;;;;;;;3.47;1.67;;;21.70;72.30;;;;;;4374341;28;655693;-66
2022/06/23 08:59:53;;;;;;;3.63;1.60;;;21.50;86.70;;;;;;4363002;28;655672;-65
2022/06/23 09:02:44;;;;;;;3.87;1.67;;;21.20;90.30;;;;;;4373540;28;655581;-66
2022/06/23 09:05:34;;;;;;;6.37;1.70;;;21.60;61.20;;;;;;4413825;28;656160;-66
2022/06/23 09:08:25;;;;;;;2.37;1.53;;;22.60;70.40;;;;;;4375636;28;655378;-66
2022/06/23 09:11:14;;;;;;;3.13;1.67;;;23.00;58.40;;;;;;4376863;28;658331;-65
2022/06/23 09:14:31;;;;;;;2.20;1.53;;;23.20;53.80;;;;;;4370442;28;655465;-66
2022/06/23 09:17:27;;;;;;;4.23;1.40;;;23.40;56.00;;;;;;4369277;28;656127;-66
2022/06/23 09:20:24;;;;;;;2.55;1.42;;;23.80;55.40;;;;;;4389330;28;655562;-66
2022/06/23 09:23:27;;;;;;;3.23;1.93;;;24.00;56.70;;;;;;4377778;28;655748;-66
2022/06/23 09:26:17;;;;;;;2.42;1.48;;;24.30;56.40;;;;;;4359901;28;655729;-65
2022/06/23 09:29:11;;;;;;;2.03;1.40;;;24.20;54.80;;;;;;4371037;28;656313;-66
2022/06/23 09:31:59;;;;;;;2.35;1.45;;;23.90;52.90;;;;;;4369721;28;656572;-66
2022/06/23 09:34:54;;;;;;;4.88;1.70;;;23.20;62.90;;;;;;4374235;28;655564;-66
2022/06/23 09:38:00;;;;;;;6.55;1.48;;;24.00;64.40;;;;;;4389159;28;657141;-65
2022/06/23 09:40:55;;;;;;;3.08;1.42;;;23.60;55.30;;;;;;4363611;28;655932;-65
2022/06/23 09:44:05;;;;;;;1.70;1.52;;;23.60;57.60;;;;;;4362742;28;656004;-66
2022/06/23 09:47:10;;;;;;;2.90;1.75;;;23.10;60.60;;;;;;4387699;28;656338;-66
2022/06/23 09:50:10;;;;;;;2.30;1.63;;;23.00;54.70;;;;;;4365902;28;656398;-66
2022/06/23 09:53:33;;;;;;;2.37;1.43;;;22.40;64.50;;;;;;4391359;28;655551;-66
2022/06/23 09:56:58;;;;;;;5.47;1.83;;;22.70;59.60;;;;;;4370829;28;655957;-66
2022/06/23 10:00:05;;;;;;;2.20;1.50;;;23.40;59.40;;;;;;4364683;28;655615;-65
2022/06/23 10:03:04;;;;;;;6.13;1.50;;;23.40;53.30;;;;;;4392244;28;655061;-65
2022/06/23 10:06:05;;;;;;;3.63;1.30;;;24.50;58.30;;;;;;4389214;28;655705;-66
2022/06/23 10:08:55;;;;;;;1.77;1.23;;;25.20;52.00;;;;;;4416543;28;655775;-66
2022/06/23 10:12:03;;;;;;;2.97;1.33;;;26.20;51.00;;;;;;4386134;28;657153;-65
2022/06/23 10:15:03;;;;;;;7.80;3.83;;;26.00;48.80;;;;;;4377220;28;655260;-65
2022/06/23 10:18:06;;;;;;;5.65;3.00;;;24.60;53.10;;;;;;4369019;28;655235;-65
2022/06/23 10:21:04;;;;;;;5.15;2.95;;;24.00;51.30;;;;;;4411098;28;656080;-65
2022/06/23 10:23:59;;;;;;;6.47;2.10;;;23.60;54.00;;;;;;4383502;28;655498;-65
2022/06/23 10:26:56;;;;;;;4.50;1.80;;;23.60;55.00;;;;;;4390338;28;655212;-66
2022/06/23 10:30:06;;;;;;;7.57;2.03;;;23.20;55.30;;;;;;4374611;28;656851;-65
2022/06/23 10:33:07;;;;;;;3.28;1.80;;;23.40;59.10;;;;;;4379410;28;656492;-65
2022/06/23 10:36:09;;;;;;;2.67;1.48;;;23.70;59.50;;;;;;4381495;28;655490;-65
2022/06/23 10:38:59;;;;;;;2.47;1.45;;;23.70;58.40;;;;;;4362282;28;656263;-65
2022/06/23 10:42:10;;;;;;;2.13;1.30;;;24.30;56.40;;;;;;4388547;28;657406;-66
2022/06/23 10:45:11;;;;;;;2.40;1.30;;;25.20;59.50;;;;;;4356456;28;655789;-65
2022/06/23 10:48:23;;;;;;;2.25;1.50;;;26.10;53.60;;;;;;4385512;28;656006;-65
2022/06/23 10:51:25;;;;;;;3.30;1.50;;;26.70;51.60;;;;;;4385657;28;656289;-65
2022/06/23 10:54:21;;;;;;;3.45;1.52;;;26.10;47.60;;;;;;4384106;28;655243;-65
2022/06/23 10:57:27;;;;;;;1.67;1.50;;;26.80;48.70;;;;;;4374780;28;655877;-66
2022/06/23 11:00:18;;;;;;;2.78;1.50;;;26.60;46.30;;;;;;4384784;28;656008;-65
2022/06/23 11:03:52;;;;;;;1.83;1.52;;;25.40;49.70;;;;;;4400651;28;655431;-65
2022/06/23 11:06:54;;;;;;;2.55;1.52;;;25.70;47.50;;;;;;4378683;28;655460;-65
2022/06/23 11:09:50;;;;;;;5.22;1.60;;;25.20;50.00;;;;;;4371303;28;655689;-65
2022/06/23 11:12:45;;;;;;;2.90;1.70;;;25.00;48.90;;;;;;4364397;28;655771;-65
2022/06/23 11:15:41;;;;;;;4.05;1.50;;;24.70;50.20;;;;;;4380908;28;656577;-65
2022/06/23 11:18:49;;;;;;;2.35;1.50;;;24.50;61.80;;;;;;4391047;28;656241;-65
2022/06/23 11:21:52;;;;;;;2.63;1.60;;;24.70;59.00;;;;;;4386401;28;655928;-65
2022/06/23 11:24:45;;;;;;;3.65;1.70;;;25.10;51.40;;;;;;4386974;28;655364;-65
2022/06/23 11:27:38;;;;;;;3.20;1.67;;;24.70;49.00;;;;;;4385370;28;655948;-65
2022/06/23 11:30:28;;;;;;;3.70;1.50;;;24.30;50.60;;;;;;4377838;28;656545;-65
2022/06/23 11:33:30;;;;;;;3.03;1.65;;;24.10;53.40;;;;;;4380885;28;655561;-65
2022/06/23 11:36:23;;;;;;;2.45;1.77;;;24.40;56.00;;;;;;4384827;28;656294;-65
2022/06/23 11:39:41;;;;;;;5.38;1.77;;;23.70;51.90;;;;;;4381265;28;656108;-65
2022/06/23 11:42:51;;;;;;;1.52;1.42;;;24.30;58.20;;;;;;4418938;28;656438;-65
2022/06/23 11:45:50;;;;;;;6.93;2.33;;;25.20;48.30;;;;;;4404436;28;656670;-65
2022/06/23 11:48:50;;;;;;;4.63;1.73;;;25.20;48.40;;;;;;4366095;28;656971;-65
2022/06/23 11:52:00;;;;;;;8.27;1.65;;;26.60;50.00;;;;;;4364626;28;656339;-65
2022/06/23 11:54:56;;;;;;;2.45;1.48;;;27.00;47.50;;;;;;4345591;28;656074;-66
2022/06/23 11:58:14;;;;;;;2.22;1.75;;;26.30;46.80;;;;;;4414772;28;656249;-66
2022/06/23 12:01:13;;;;;;;3.72;1.65;;;26.70;45.50;;;;;;4366639;28;657436;-66
2022/06/23 12:04:34;;;;;;;3.28;1.50;;;26.80;44.10;;;;;;4376925;28;655401;-66
2022/06/23 12:07:39;;;;;;;3.90;1.50;;;26.80;46.40;;;;;;4442392;28;655578;-65
2022/06/23 12:10:27;;;;;;;2.88;1.50;;;26.70;43.10;;;;;;4396609;28;656375;-65
2022/06/23 12:13:15;;;;;;;1.67;1.50;;;26.20;45.20;;;;;;4410223;28;656012;-65
2022/06/23 12:16:02;;;;;;;2.80;1.60;;;25.50;45.60;;;;;;4412123;28;655513;-65
2022/06/23 12:18:52;;;;;;;3.15;1.60;;;25.90;48.40;;;;;;4414219;28;655539;-65
2022/06/23 12:21:43;;;;;;;2.65;1.70;;;27.70;45.00;;;;;;4389001;28;655923;-65
2022/06/23 12:24:33;;;;;;;2.60;1.50;;;27.30;45.10;;;;;;4373104;28;655682;-65
2022/06/23 12:27:23;;;;;;;2.83;1.70;;;27.10;44.90;;;;;;4408922;28;655508;-65
2022/06/23 12:30:12;;;;;;;1.40;1.25;;;27.00;46.00;;;;;;4392860;28;655714;-65
2022/06/23 12:33:01;;;;;;;4.60;1.52;;;26.70;46.90;;;;;;4411322;28;656114;-65
2022/06/23 12:35:51;;;;;;;6.10;1.70;;;27.00;45.70;;;;;;4386547;28;656427;-65
2022/06/23 12:38:42;;;;;;;3.30;1.60;;;26.70;44.70;;;;;;4393281;28;656970;-65
2022/06/23 12:41:31;;;;;;;3.42;1.60;;;26.50;45.20;;;;;;4390444;28;655535;-65
2022/06/23 12:44:23;;;;;;;2.40;1.50;;;26.80;45.90;;;;;;4390110;28;655728;-65
2022/06/23 12:47:15;;;;;;;4.45;1.67;;;26.90;43.90;;;;;;4380731;28;656630;-66
2022/06/23 12:50:26;;;;;;;2.80;1.70;;;26.60;45.20;;;;;;4386453;28;657246;-65
2022/06/23 12:53:27;;;;;;;2.47;1.50;;;27.30;45.50;;;;;;4388787;28;656493;-65
2022/06/23 12:56:26;;;;;;;3.25;1.40;;;27.40;45.10;;;;;;4389945;28;655842;-65
2022/06/23 12:59:19;;;;;;;4.97;1.70;;;27.20;46.50;;;;;;4386863;28;656009;-65
2022/06/23 13:02:09;;;;;;;4.70;1.70;;;27.80;44.20;;;;;;4376654;28;655624;-65
2022/06/23 13:04:59;;;;;;;3.92;1.48;;;27.00;45.00;;;;;;4388997;28;655282;-65
2022/06/23 13:07:49;;;;;;;2.30;1.50;;;26.40;45.10;;;;;;4402259;28;655388;-65
2022/06/23 13:10:37;;;;;;;3.60;1.50;;;27.00;48.20;;;;;;4397496;28;655935;-65
2022/06/23 13:13:29;;;;;;;2.38;1.30;;;27.30;45.10;;;;;;4408284;28;655912;-65
2022/06/23 13:16:18;;;;;;;2.85;1.30;;;26.80;44.50;;;;;;4401867;28;655525;-65
2022/06/23 13:19:06;;;;;;;10.65;1.83;;;27.10;44.10;;;;;;4397779;28;655612;-65
2022/06/23 13:21:53;;;;;;;4.38;1.60;;;27.50;43.10;;;;;;4407371;28;656585;-65
2022/06/23 13:24:42;;;;;;;4.07;1.48;;;27.30;44.00;;;;;;4392199;28;657469;-65
2022/06/23 13:27:30;;;;;;;3.95;1.75;;;26.80;40.70;;;;;;4420252;28;655887;-65
2022/06/23 13:30:20;;;;;;;3.25;1.42;;;28.20;41.60;;;;;;4404975;28;656331;-65
2022/06/23 13:33:09;;;;;;;3.63;1.65;;;28.10;40.60;;;;;;4395076;28;655854;-65
2022/06/23 13:36:00;;;;;;;3.83;1.50;;;27.30;42.50;;;;;;4397652;28;655347;-65
2022/06/23 13:39:07;;;;;;;4.28;1.60;;;26.80;43.20;;;;;;4381015;28;657135;-65
2022/06/23 13:41:57;;;;;;;2.53;1.67;;;27.60;42.00;;;;;;4387493;28;655614;-65
2022/06/23 13:44:47;;;;;;;3.63;1.70;;;28.30;42.90;;;;;;4389455;28;656114;-65
2022/06/23 13:47:37;;;;;;;2.50;1.50;;;28.80;40.70;;;;;;4395877;28;657533;-65
2022/06/23 13:50:26;;;;;;;2.03;1.50;;;28.50;40.10;;;;;;4396352;28;656960;-65
2022/06/23 13:53:17;;;;;;;5.40;1.65;;;28.00;43.10;;;;;;4389076;28;656901;-65
2022/06/23 13:56:07;;;;;;;2.47;1.42;;;28.80;41.10;;;;;;4391517;28;656576;-66
2022/06/23 13:58:58;;;;;;;3.63;1.60;;;29.20;38.30;;;;;;4388136;28;657387;-65
2022/06/23 14:01:48;;;;;;;2.70;1.42;;;27.90;38.60;;;;;;4375521;28;656268;-65
2022/06/23 14:04:39;;;;;;;3.88;1.40;;;27.40;43.50;;;;;;4397000;28;656832;-66
2022/06/23 14:07:29;;;;;;;6.82;1.48;;;28.60;41.50;;;;;;4392682;28;656868;-66
2022/06/23 14:10:21;;;;;;;1.98;1.42;;;29.30;40.10;;;;;;4392582;28;656813;-65
2022/06/23 14:13:10;;;;;;;2.03;1.30;;;28.90;39.00;;;;;;4386816;28;656085;-65
2022/06/23 14:16:01;;;;;;;4.78;1.35;;;28.80;39.50;;;;;;4386165;28;657693;-65
2022/06/23 14:18:52;;;;;;;2.78;1.48;;;29.20;38.90;;;;;;4381168;28;657016;-65
2022/06/23 14:21:42;;;;;;;3.53;1.52;;;27.40;40.80;;;;;;4386217;28;657778;-65
2022/06/23 14:24:31;;;;;;;1.70;1.33;;;27.20;43.60;;;;;;4382950;28;657027;-65
2022/06/23 14:27:21;;;;;;;4.28;1.60;;;27.20;43.90;;;;;;4388021;28;656827;-65
2022/06/23 14:30:13;;;;;;;4.03;1.35;;;28.40;42.10;;;;;;4389842;28;657765;-65
2022/06/23 14:33:03;;;;;;;3.15;1.55;;;29.10;40.10;;;;;;4405478;28;656727;-65
2022/06/23 14:35:52;;;;;;;4.43;1.40;;;29.00;38.70;;;;;;4390547;28;656588;-65
2022/06/23 14:38:45;;;;;;;2.10;1.45;;;27.70;41.70;;;;;;4414199;28;656492;-65
2022/06/23 14:41:43;;;;;;;3.30;1.70;;;27.20;41.00;;;;;;4386800;28;657418;-65
2022/06/23 14:44:50;;;;;;;3.03;1.40;;;27.60;42.60;;;;;;4380113;28;656404;-66
2022/06/23 14:47:50;;;;;;;2.25;1.65;;;28.20;41.20;;;;;;4364718;28;657675;-65
2022/06/23 14:50:41;;;;;;;3.20;2.13;;;28.00;39.10;;;;;;4367826;28;657824;-65
2022/06/23 14:53:29;;;;;;;2.78;2.15;;;28.20;39.10;;;;;;4381024;28;657616;-65